sensor_id;sensor_type;location;lat;lon;timestamp;pressure;altitude;pressure_sealevel;temperature;humidity
68793;BME280;55778;54.346;10.210;2023-01-25T00:01:46;103443.97;;;-0.18;95.28
68793;BME280;55778;54.346;10.210;2023-01-25T00:04:12;103448.44;;;-0.15;95.51
68793;BME280;55778;54.346;10.210;2023-01-25T00:06:37;103443.13;;;-0.21;95.42
68793;BME280;55778;54.346;10.210;2023-01-25T00:09:03;103439.56;;;-0.26;95.76
68793;BME280;55778;54.346;10.210;2023-01-25T00:11:29;103444.81;;;-0.11;95.88
68793;BME280;55778;54.346;10.210;2023-01-25T00:13:55;103436.78;;;-0.13;95.82
68793;BME280;55778;54.346;10.210;2023-01-25T00:16:22;103427.78;;;-0.07;95.76
68793;BME280;55778;54.346;10.210;2023-01-25T00:18:48;103429.56;;;-0.05;95.78
68793;BME280;55778;54.346;10.210;2023-01-25T00:21:19;103426.91;;;-0.06;95.55
68793;BME280;55778;54.346;10.210;2023-01-25T00:23:45;103421.63;;;-0.15;95.56
68793;BME280;55778;54.346;10.210;2023-01-25T00:26:11;103426.13;;;-0.20;95.71
68793;BME280;55778;54.346;10.210;2023-01-25T00:28:36;103424.34;;;-0.20;95.86
68793;BME280;55778;54.346;10.210;2023-01-25T00:31:03;103420.84;;;-0.29;96.41
68793;BME280;55778;54.346;10.210;2023-01-25T00:36:33;103410.06;;;-0.23;96.37
68793;BME280;55778;54.346;10.210;2023-01-25T00:39:05;103412.72;;;-0.20;96.33
68793;BME280;55778;54.346;10.210;2023-01-25T00:41:31;103405.59;;;-0.21;96.62
68793;BME280;55778;54.346;10.210;2023-01-25T00:43:56;103410.13;;;-0.31;96.83
68793;BME280;55778;54.346;10.210;2023-01-25T00:46:22;103399.38;;;-0.25;97.14
68793;BME280;55778;54.346;10.210;2023-01-25T00:48:48;103399.38;;;-0.23;97.16
68793;BME280;55778;54.346;10.210;2023-01-25T00:51:13;103392.13;;;-0.12;95.97
68793;BME280;55778;54.346;10.210;2023-01-25T00:53:39;103401.97;;;-0.14;96.27
68793;BME280;55778;54.346;10.210;2023-01-25T00:56:05;103394.88;;;-0.18;96.21
68793;BME280;55778;54.346;10.210;2023-01-25T00:58:30;103395.72;;;-0.16;96.67
68793;BME280;55778;54.346;10.210;2023-01-25T01:00:56;103388.69;;;-0.29;96.67
68793;BME280;55778;54.346;10.210;2023-01-25T01:03:22;103389.56;;;-0.24;96.81
68793;BME280;55778;54.346;10.210;2023-01-25T01:05:48;103393.06;;;-0.19;96.52
68793;BME280;55778;54.346;10.210;2023-01-25T01:08:22;103393.28;;;-0.40;97.62
68793;BME280;55778;54.346;10.210;2023-01-25T01:10:48;103388.63;;;-0.22;96.98
68793;BME280;55778;54.346;10.210;2023-01-25T01:13:13;103379.66;;;-0.19;96.78
68793;BME280;55778;54.346;10.210;2023-01-25T01:15:39;103396.63;;;-0.19;97.19
68793;BME280;55778;54.346;10.210;2023-01-25T01:18:04;103382.31;;;-0.16;97.11
68793;BME280;55778;54.346;10.210;2023-01-25T01:20:30;103376.19;;;-0.26;97.69
68793;BME280;55778;54.346;10.210;2023-01-25T01:22:55;103370.94;;;-0.41;98.41
68793;BME280;55778;54.346;10.210;2023-01-25T01:25:21;103365.41;;;-0.21;98.38
68793;BME280;55778;54.346;10.210;2023-01-25T01:27:46;103369.69;;;-0.02;97.39
68793;BME280;55778;54.346;10.210;2023-01-25T01:30:12;103362.59;;;-0.06;97.65
68793;BME280;55778;54.346;10.210;2023-01-25T01:32:37;103367.06;;;-0.07;97.71
68793;BME280;55778;54.346;10.210;2023-01-25T01:35:03;103357.28;;;-0.11;98.08
68793;BME280;55778;54.346;10.210;2023-01-25T01:37:28;103362.59;;;-0.05;97.88
68793;BME280;55778;54.346;10.210;2023-01-25T01:39:53;103358.16;;;-0.10;98.03
68793;BME280;55778;54.346;10.210;2023-01-25T01:42:19;103368.88;;;-0.10;98.42
68793;BME280;55778;54.346;10.210;2023-01-25T01:44:51;103363.56;;;-0.18;98.17
68793;BME280;55778;54.346;10.210;2023-01-25T01:49:49;103345.78;;;-0.23;99.37
68793;BME280;55778;54.346;10.210;2023-01-25T01:52:17;103350.28;;;-0.28;99.06
68793;BME280;55778;54.346;10.210;2023-01-25T01:54:56;103341.56;;;-0.48;99.98
68793;BME280;55778;54.346;10.210;2023-01-25T01:57:36;103347.84;;;-0.52;100.00
68793;BME280;55778;54.346;10.210;2023-01-25T02:00:11;103355.94;;;-0.61;100.00
68793;BME280;55778;54.346;10.210;2023-01-25T02:02:39;103345.06;;;-0.39;100.00
68793;BME280;55778;54.346;10.210;2023-01-25T02:05:06;103355.00;;;-0.57;100.00
68793;BME280;55778;54.346;10.210;2023-01-25T02:07:35;103354.03;;;-0.47;100.00
68793;BME280;55778;54.346;10.210;2023-01-25T02:10:07;103352.22;;;-0.44;100.00
68793;BME280;55778;54.346;10.210;2023-01-25T02:12:35;103348.56;;;-0.35;100.00
68793;BME280;55778;54.346;10.210;2023-01-25T02:15:01;103351.38;;;-0.50;100.00
68793;BME280;55778;54.346;10.210;2023-01-25T02:17:29;103344.19;;;-0.42;100.00
68793;BME280;55778;54.346;10.210;2023-01-25T02:22:25;103343.34;;;-0.52;100.00
68793;BME280;55778;54.346;10.210;2023-01-25T02:25:15;103351.38;;;-0.49;100.00
68793;BME280;55778;54.346;10.210;2023-01-25T02:27:47;103346.09;;;-0.58;100.00
68793;BME280;55778;54.346;10.210;2023-01-25T02:30:15;103339.75;;;-0.43;100.00
68793;BME280;55778;54.346;10.210;2023-01-25T02:32:40;103339.50;;;-0.21;100.00
68793;BME280;55778;54.346;10.210;2023-01-25T02:35:06;103345.88;;;-0.34;100.00
68793;BME280;55778;54.346;10.210;2023-01-25T02:37:32;103340.50;;;-0.32;100.00
68793;BME280;55778;54.346;10.210;2023-01-25T02:39:57;103342.16;;;-0.19;100.00
68793;BME280;55778;54.346;10.210;2023-01-25T02:42:23;103329.78;;;-0.31;100.00
68793;BME280;55778;54.346;10.210;2023-01-25T02:44:49;103325.38;;;-0.38;100.00
68793;BME280;55778;54.346;10.210;2023-01-25T02:47:15;103324.63;;;-0.53;100.00
68793;BME280;55778;54.346;10.210;2023-01-25T02:49:41;103325.56;;;-0.57;100.00
68793;BME280;55778;54.346;10.210;2023-01-25T02:52:06;103313.06;;;-0.57;100.00
68793;BME280;55778;54.346;10.210;2023-01-25T02:54:32;103313.03;;;-0.51;100.00
68793;BME280;55778;54.346;10.210;2023-01-25T02:56:57;103316.59;;;-0.53;100.00
68793;BME280;55778;54.346;10.210;2023-01-25T02:59:23;103311.19;;;-0.49;100.00
68793;BME280;55778;54.346;10.210;2023-01-25T03:01:49;103318.38;;;-0.51;100.00
68793;BME280;55778;54.346;10.210;2023-01-25T03:04:14;103314.88;;;-0.60;100.00
68793;BME280;55778;54.346;10.210;2023-01-25T03:06:40;103318.50;;;-0.64;100.00
68793;BME280;55778;54.346;10.210;2023-01-25T03:09:08;103307.81;;;-0.67;100.00
68793;BME280;55778;54.346;10.210;2023-01-25T03:11:33;103299.75;;;-0.64;100.00
68793;BME280;55778;54.346;10.210;2023-01-25T03:13:59;103304.22;;;-0.65;100.00
68793;BME280;55778;54.346;10.210;2023-01-25T03:16:25;103307.75;;;-0.60;100.00
68793;BME280;55778;54.346;10.210;2023-01-25T03:18:53;103299.75;;;-0.66;100.00
68793;BME280;55778;54.346;10.210;2023-01-25T03:21:20;103298.84;;;-0.65;100.00
68793;BME280;55778;54.346;10.210;2023-01-25T03:23:46;103302.44;;;-0.64;100.00
68793;BME280;55778;54.346;10.210;2023-01-25T03:26:18;103296.19;;;-0.66;100.00
68793;BME280;55778;54.346;10.210;2023-01-25T03:28:44;103294.44;;;-0.70;100.00
68793;BME280;55778;54.346;10.210;2023-01-25T03:31:11;103299.75;;;-0.64;100.00
68793;BME280;55778;54.346;10.210;2023-01-25T03:33:37;103289.97;;;-0.70;100.00
68793;BME280;55778;54.346;10.210;2023-01-25T03:36:03;103288.09;;;-0.60;100.00
68793;BME280;55778;54.346;10.210;2023-01-25T03:38:30;103279.09;;;-0.53;100.00
68793;BME280;55778;54.346;10.210;2023-01-25T03:40:56;103285.44;;;-0.62;100.00
68793;BME280;55778;54.346;10.210;2023-01-25T03:43:22;103279.34;;;-0.77;100.00
68793;BME280;55778;54.346;10.210;2023-01-25T03:45:55;103282.13;;;-0.91;100.00
68793;BME280;55778;54.346;10.210;2023-01-25T03:48:21;103277.63;;;-0.86;100.00
68793;BME280;55778;54.346;10.210;2023-01-25T03:50:51;103266.03;;;-0.85;100.00
68793;BME280;55778;54.346;10.210;2023-01-25T03:53:17;103264.97;;;-0.66;100.00
68793;BME280;55778;54.346;10.210;2023-01-25T03:55:59;103265.19;;;-0.93;100.00
68793;BME280;55778;54.346;10.210;2023-01-25T03:58:25;103246.41;;;-0.88;100.00
68793;BME280;55778;54.346;10.210;2023-01-25T04:00:53;103254.38;;;-0.78;100.00
68793;BME280;55778;54.346;10.210;2023-01-25T04:03:19;103248.94;;;-0.70;100.00
68793;BME280;55778;54.346;10.210;2023-01-25T04:05:46;103241.03;;;-0.85;100.00
68793;BME280;55778;54.346;10.210;2023-01-25T04:08:11;103231.38;;;-1.00;100.00
68793;BME280;55778;54.346;10.210;2023-01-25T04:10:37;103236.69;;;-0.95;100.00
68793;BME280;55778;54.346;10.210;2023-01-25T04:13:02;103228.66;;;-0.94;100.00
68793;BME280;55778;54.346;10.210;2023-01-25T04:15:28;103231.16;;;-0.77;100.00
68793;BME280;55778;54.346;10.210;2023-01-25T04:17:53;103214.41;;;-1.00;100.00
68793;BME280;55778;54.346;10.210;2023-01-25T04:20:20;103217.97;;;-0.98;100.00
68793;BME280;55778;54.346;10.210;2023-01-25T04:22:45;103211.59;;;-0.85;100.00
68793;BME280;55778;54.346;10.210;2023-01-25T04:25:11;103213.41;;;-0.87;100.00
68793;BME280;55778;54.346;10.210;2023-01-25T04:27:37;103210.72;;;-0.86;100.00
68793;BME280;55778;54.346;10.210;2023-01-25T04:30:02;103207.16;;;-0.86;100.00
68793;BME280;55778;54.346;10.210;2023-01-25T04:32:28;103201.78;;;-0.83;100.00
68793;BME280;55778;54.346;10.210;2023-01-25T04:34:53;103200.84;;;-0.78;100.00
68793;BME280;55778;54.346;10.210;2023-01-25T04:37:19;103202.69;;;-0.86;100.00
68793;BME280;55778;54.346;10.210;2023-01-25T04:39:44;103194.69;;;-0.90;100.00
68793;BME280;55778;54.346;10.210;2023-01-25T04:42:09;103194.69;;;-0.90;100.00
68793;BME280;55778;54.346;10.210;2023-01-25T04:44:35;103199.06;;;-0.79;100.00
68793;BME280;55778;54.346;10.210;2023-01-25T04:47:00;103191.94;;;-0.81;100.00
68793;BME280;55778;54.346;10.210;2023-01-25T04:49:25;103197.28;;;-0.81;100.00
68793;BME280;55778;54.346;10.210;2023-01-25T04:51:51;103196.38;;;-0.79;100.00
68793;BME280;55778;54.346;10.210;2023-01-25T04:54:16;103203.63;;;-0.90;100.00
68793;BME280;55778;54.346;10.210;2023-01-25T04:56:42;103200.94;;;-0.88;100.00
68793;BME280;55778;54.346;10.210;2023-01-25T04:59:07;103202.81;;;-1.01;100.00
68793;BME280;55778;54.346;10.210;2023-01-25T05:01:32;103200.88;;;-0.82;100.00
68793;BME280;55778;54.346;10.210;2023-01-25T05:03:58;103200.88;;;-0.84;100.00
68793;BME280;55778;54.346;10.210;2023-01-25T05:06:24;103200.88;;;-0.84;100.00
68793;BME280;55778;54.346;10.210;2023-01-25T05:08:49;103200.03;;;-0.90;100.00
68793;BME280;55778;54.346;10.210;2023-01-25T05:11:14;103200.91;;;-0.85;100.00
68793;BME280;55778;54.346;10.210;2023-01-25T05:13:40;103192.88;;;-0.87;100.00
68793;BME280;55778;54.346;10.210;2023-01-25T05:16:05;103191.13;;;-0.88;100.00
68793;BME280;55778;54.346;10.210;2023-01-25T05:18:31;103186.59;;;-0.84;100.00
68793;BME280;55778;54.346;10.210;2023-01-25T05:20:56;103190.22;;;-0.88;100.00
68793;BME280;55778;54.346;10.210;2023-01-25T05:23:21;103187.56;;;-0.88;100.00
68793;BME280;55778;54.346;10.210;2023-01-25T05:25:47;103191.97;;;-0.86;100.00
68793;BME280;55778;54.346;10.210;2023-01-25T05:28:31;103186.69;;;-0.95;100.00
68793;BME280;55778;54.346;10.210;2023-01-25T05:30:56;103183.13;;;-0.92;100.00
68793;BME280;55778;54.346;10.210;2023-01-25T05:33:22;103186.63;;;-0.87;100.00
68793;BME280;55778;54.346;10.210;2023-01-25T05:35:47;103190.22;;;-0.87;100.00
68793;BME280;55778;54.346;10.210;2023-01-25T05:38:13;103180.50;;;-0.97;100.00
68793;BME280;55778;54.346;10.210;2023-01-25T05:40:38;103175.03;;;-0.83;100.00
68793;BME280;55778;54.346;10.210;2023-01-25T05:43:04;103179.38;;;-0.75;100.00
68793;BME280;55778;54.346;10.210;2023-01-25T05:45:29;103177.53;;;-0.71;100.00
68793;BME280;55778;54.346;10.210;2023-01-25T05:47:55;103173.22;;;-0.83;100.00
68793;BME280;55778;54.346;10.210;2023-01-25T05:50:22;103174.13;;;-0.84;100.00
68793;BME280;55778;54.346;10.210;2023-01-25T05:52:49;103169.81;;;-0.98;100.00
68793;BME280;55778;54.346;10.210;2023-01-25T05:55:14;103168.81;;;-0.90;100.00
68793;BME280;55778;54.346;10.210;2023-01-25T05:57:40;103167.00;;;-0.85;100.00
68793;BME280;55778;54.346;10.210;2023-01-25T06:00:06;103167.84;;;-0.83;100.00
68793;BME280;55778;54.346;10.210;2023-01-25T06:02:32;103166.19;;;-0.93;100.00
68793;BME280;55778;54.346;10.210;2023-01-25T06:04:57;103173.38;;;-1.01;100.00
68793;BME280;55778;54.346;10.210;2023-01-25T06:07:23;103169.78;;;-0.95;100.00
68793;BME280;55778;54.346;10.210;2023-01-25T06:09:49;103159.16;;;-1.04;100.00
68793;BME280;55778;54.346;10.210;2023-01-25T06:12:14;103153.03;;;-1.18;100.00
68793;BME280;55778;54.346;10.210;2023-01-25T06:14:40;103152.31;;;-1.35;100.00
68793;BME280;55778;54.346;10.210;2023-01-25T06:17:06;103162.09;;;-1.33;100.00
68793;BME280;55778;54.346;10.210;2023-01-25T06:19:32;103162.69;;;-1.01;100.00
68793;BME280;55778;54.346;10.210;2023-01-25T06:21:57;103154.59;;;-0.96;100.00
68793;BME280;55778;54.346;10.210;2023-01-25T06:24:22;103151.22;;;-1.13;100.00
68793;BME280;55778;54.346;10.210;2023-01-25T06:26:48;103146.94;;;-1.32;100.00
68793;BME280;55778;54.346;10.210;2023-01-25T06:29:13;103145.88;;;-1.13;100.00
68793;BME280;55778;54.346;10.210;2023-01-25T06:31:39;103148.69;;;-1.28;100.00
68793;BME280;55778;54.346;10.210;2023-01-25T06:34:04;103149.69;;;-1.40;100.00
68793;BME280;55778;54.346;10.210;2023-01-25T06:36:30;103146.16;;;-1.46;100.00
68793;BME280;55778;54.346;10.210;2023-01-25T06:38:56;103147.09;;;-1.52;100.00
68793;BME280;55778;54.346;10.210;2023-01-25T06:41:21;103130.13;;;-1.49;100.00
68793;BME280;55778;54.346;10.210;2023-01-25T06:43:49;103141.75;;;-1.52;100.00
68793;BME280;55778;54.346;10.210;2023-01-25T06:46:15;103136.31;;;-1.40;100.00
68793;BME280;55778;54.346;10.210;2023-01-25T06:48:41;103132.69;;;-1.36;100.00
68793;BME280;55778;54.346;10.210;2023-01-25T06:51:12;103136.25;;;-1.34;100.00
68793;BME280;55778;54.346;10.210;2023-01-25T06:53:40;103134.53;;;-1.42;100.00
68793;BME280;55778;54.346;10.210;2023-01-25T06:56:06;103132.84;;;-1.54;100.00
68793;BME280;55778;54.346;10.210;2023-01-25T06:58:33;103132.84;;;-1.54;100.00
68793;BME280;55778;54.346;10.210;2023-01-25T07:01:21;103140.72;;;-1.37;100.00
68793;BME280;55778;54.346;10.210;2023-01-25T07:03:50;103125.53;;;-1.31;100.00
68793;BME280;55778;54.346;10.210;2023-01-25T07:06:16;103124.69;;;-1.39;100.00
68793;BME280;55778;54.346;10.210;2023-01-25T07:08:41;103129.13;;;-1.35;100.00
68793;BME280;55778;54.346;10.210;2023-01-25T07:11:09;103125.53;;;-1.31;100.00
68793;BME280;55778;54.346;10.210;2023-01-25T07:13:38;103113.00;;;-1.26;100.00
68793;BME280;55778;54.346;10.210;2023-01-25T07:16:06;103105.84;;;-1.22;100.00
68793;BME280;55778;54.346;10.210;2023-01-25T07:18:32;103100.50;;;-1.22;100.00
68793;BME280;55778;54.346;10.210;2023-01-25T07:21:06;103104.16;;;-1.32;100.00
68793;BME280;55778;54.346;10.210;2023-01-25T07:23:32;103098.84;;;-1.35;100.00
68793;BME280;55778;54.346;10.210;2023-01-25T07:25:58;103098.84;;;-1.37;100.00
68793;BME280;55778;54.346;10.210;2023-01-25T07:28:24;103099.75;;;-1.41;100.00
68793;BME280;55778;54.346;10.210;2023-01-25T07:30:49;103101.56;;;-1.41;100.00
68793;BME280;55778;54.346;10.210;2023-01-25T07:33:16;103093.50;;;-1.35;100.00
68793;BME280;55778;54.346;10.210;2023-01-25T07:35:41;103089.00;;;-1.35;100.00
68793;BME280;55778;54.346;10.210;2023-01-25T07:38:06;103096.16;;;-1.35;100.00
68793;BME280;55778;54.346;10.210;2023-01-25T07:40:32;103086.41;;;-1.42;100.00
68793;BME280;55778;54.346;10.210;2023-01-25T07:42:57;103084.66;;;-1.45;100.00
68793;BME280;55778;54.346;10.210;2023-01-25T07:45:23;103088.22;;;-1.44;100.00
68793;BME280;55778;54.346;10.210;2023-01-25T07:48:06;103087.28;;;-1.42;100.00
68793;BME280;55778;54.346;10.210;2023-01-25T07:50:33;103099.00;;;-1.53;100.00
68793;BME280;55778;54.346;10.210;2023-01-25T07:52:58;103090.00;;;-1.46;100.00
68793;BME280;55778;54.346;10.210;2023-01-25T07:55:24;103092.69;;;-1.48;100.00
68793;BME280;55778;54.346;10.210;2023-01-25T07:57:53;103094.44;;;-1.44;100.00
68793;BME280;55778;54.346;10.210;2023-01-25T08:00:22;103091.75;;;-1.42;100.00
68793;BME280;55778;54.346;10.210;2023-01-25T08:02:52;103085.53;;;-1.43;100.00
68793;BME280;55778;54.346;10.210;2023-01-25T08:05:17;103087.28;;;-1.39;100.00
68793;BME280;55778;54.346;10.210;2023-01-25T08:07:44;103074.00;;;-1.49;100.00
68793;BME280;55778;54.346;10.210;2023-01-25T08:10:10;103080.16;;;-1.41;100.00
68793;BME280;55778;54.346;10.210;2023-01-25T08:12:35;103082.88;;;-1.46;100.00
68793;BME280;55778;54.346;10.210;2023-01-25T08:15:00;103086.41;;;-1.42;100.00
68793;BME280;55778;54.346;10.210;2023-01-25T08:17:26;103089.09;;;-1.44;100.00
68793;BME280;55778;54.346;10.210;2023-01-25T08:20:00;103080.16;;;-1.40;100.00
68793;BME280;55778;54.346;10.210;2023-01-25T08:22:26;103073.09;;;-1.47;100.00
68793;BME280;55778;54.346;10.210;2023-01-25T08:24:53;103065.00;;;-1.41;100.00
68793;BME280;55778;54.346;10.210;2023-01-25T08:27:19;103064.16;;;-1.46;100.00
68793;BME280;55778;54.346;10.210;2023-01-25T08:29:45;103050.66;;;-1.29;100.00
68793;BME280;55778;54.346;10.210;2023-01-25T08:32:11;103061.56;;;-1.52;100.00
68793;BME280;55778;54.346;10.210;2023-01-25T08:34:36;103058.69;;;-1.32;100.00
68793;BME280;55778;54.346;10.210;2023-01-25T08:37:02;103063.16;;;-1.33;100.00
68793;BME280;55778;54.346;10.210;2023-01-25T08:39:27;103057.91;;;-1.45;100.00
68793;BME280;55778;54.346;10.210;2023-01-25T08:41:52;103048.88;;;-1.33;100.00
68793;BME280;55778;54.346;10.210;2023-01-25T08:44:18;103049.84;;;-1.39;100.00
68793;BME280;55778;54.346;10.210;2023-01-25T08:46:48;103037.47;;;-1.50;100.00
68793;BME280;55778;54.346;10.210;2023-01-25T08:49:14;103031.22;;;-1.49;100.00
68793;BME280;55778;54.346;10.210;2023-01-25T08:51:40;103035.75;;;-1.54;100.00
68793;BME280;55778;54.346;10.210;2023-01-25T08:54:11;103028.63;;;-1.58;100.00
68793;BME280;55778;54.346;10.210;2023-01-25T08:56:38;103032.31;;;-1.70;100.00
68793;BME280;55778;54.346;10.210;2023-01-25T08:59:04;103033.28;;;-1.77;100.00
68793;BME280;55778;54.346;10.210;2023-01-25T09:01:30;103024.44;;;-1.88;100.00
68793;BME280;55778;54.346;10.210;2023-01-25T09:03:55;103012.00;;;-1.90;100.00
68793;BME280;55778;54.346;10.210;2023-01-25T09:06:21;103021.69;;;-1.79;100.00
68793;BME280;55778;54.346;10.210;2023-01-25T09:08:46;103019.09;;;-1.86;100.00
68793;BME280;55778;54.346;10.210;2023-01-25T09:11:17;103019.81;;;-1.66;100.00
68793;BME280;55778;54.346;10.210;2023-01-25T09:13:43;103012.59;;;-1.60;100.00
68793;BME280;55778;54.346;10.210;2023-01-25T09:16:14;103009.03;;;-1.57;100.00
68793;BME280;55778;54.346;10.210;2023-01-25T09:18:42;103001.00;;;-1.54;100.00
68793;BME280;55778;54.346;10.210;2023-01-25T09:21:12;102996.50;;;-1.54;100.00
68793;BME280;55778;54.346;10.210;2023-01-25T09:23:38;102994.75;;;-1.55;100.00
68793;BME280;55778;54.346;10.210;2023-01-25T09:26:04;102989.63;;;-1.79;100.00
68793;BME280;55778;54.346;10.210;2023-01-25T09:28:30;102987.84;;;-1.78;100.00
68793;BME280;55778;54.346;10.210;2023-01-25T09:31:00;102978.94;;;-1.79;100.00
68793;BME280;55778;54.346;10.210;2023-01-25T09:33:34;102978.94;;;-1.77;100.00
68793;BME280;55778;54.346;10.210;2023-01-25T09:36:00;102981.56;;;-1.73;100.00
68793;BME280;55778;54.346;10.210;2023-01-25T09:38:25;102984.19;;;-1.68;100.00
68793;BME280;55778;54.346;10.210;2023-01-25T09:43:42;102978.47;;;-1.32;100.00
68793;BME280;55778;54.346;10.210;2023-01-25T09:46:25;102979.38;;;-1.36;100.00
68793;BME280;55778;54.346;10.210;2023-01-25T09:52:19;102975.09;;;-1.49;100.00
68793;BME280;55778;54.346;10.210;2023-01-25T09:54:51;102967.97;;;-1.50;100.00
68793;BME280;55778;54.346;10.210;2023-01-25T09:57:21;102962.84;;;-1.73;100.00
68793;BME280;55778;54.346;10.210;2023-01-25T09:59:51;102957.44;;;-1.65;100.00
68793;BME280;55778;54.346;10.210;2023-01-25T10:02:53;102960.00;;;-1.56;100.00
68793;BME280;55778;54.346;10.210;2023-01-25T10:05:25;102961.00;;;-1.63;100.00
68793;BME280;55778;54.346;10.210;2023-01-25T10:08:52;102957.38;;;-1.59;100.00
68793;BME280;55778;54.346;10.210;2023-01-25T10:11:29;102950.38;;;-1.71;100.00
68793;BME280;55778;54.346;10.210;2023-01-25T10:13:56;102942.38;;;-1.74;100.00
68793;BME280;55778;54.346;10.210;2023-01-25T10:19:18;102943.09;;;-1.58;100.00
68793;BME280;55778;54.346;10.210;2023-01-25T10:22:12;102926.22;;;-1.60;100.00
68793;BME280;55778;54.346;10.210;2023-01-25T10:27:41;102914.72;;;-1.70;100.00
68793;BME280;55778;54.346;10.210;2023-01-25T10:30:34;102916.47;;;-1.67;100.00
68793;BME280;55778;54.346;10.210;2023-01-25T10:33:17;102895.09;;;-1.67;100.00
68793;BME280;55778;54.346;10.210;2023-01-25T10:35:45;102894.16;;;-1.62;100.00
68793;BME280;55778;54.346;10.210;2023-01-25T10:38:28;102905.84;;;-1.75;100.00
68793;BME280;55778;54.346;10.210;2023-01-25T10:41:00;102902.38;;;-1.80;100.00
68793;BME280;55778;54.346;10.210;2023-01-25T10:43:28;102904.09;;;-1.76;100.00
68793;BME280;55778;54.346;10.210;2023-01-25T10:45:54;102909.41;;;-1.71;100.00
68793;BME280;55778;54.346;10.210;2023-01-25T10:48:23;102899.59;;;-1.71;100.00
68793;BME280;55778;54.346;10.210;2023-01-25T10:50:53;102890.69;;;-1.73;100.00
68793;BME280;55778;54.346;10.210;2023-01-25T10:53:21;102886.28;;;-1.75;100.00
68793;BME280;55778;54.346;10.210;2023-01-25T10:56:02;102880.91;;;-1.71;100.00
68793;BME280;55778;54.346;10.210;2023-01-25T10:58:38;102885.47;;;-1.85;100.00
68793;BME280;55778;54.346;10.210;2023-01-25T11:01:10;102880.13;;;-1.82;100.00
68793;BME280;55778;54.346;10.210;2023-01-25T11:03:41;102877.47;;;-1.85;100.00
68793;BME280;55778;54.346;10.210;2023-01-25T11:06:09;102868.44;;;-1.73;100.00
68793;BME280;55778;54.346;10.210;2023-01-25T11:08:37;102862.22;;;-1.72;100.00
68793;BME280;55778;54.346;10.210;2023-01-25T11:11:24;102850.66;;;-1.76;100.00
68793;BME280;55778;54.346;10.210;2023-01-25T11:13:51;102853.59;;;-2.02;100.00
68793;BME280;55778;54.346;10.210;2023-01-25T11:16:34;102857.94;;;-1.88;100.00
68793;BME280;55778;54.346;10.210;2023-01-25T11:19:02;102852.56;;;-1.84;100.00
68793;BME280;55778;54.346;10.210;2023-01-25T11:21:32;102846.25;;;-1.78;100.00
68793;BME280;55778;54.346;10.210;2023-01-25T11:26:23;102839.00;;;-1.70;100.00
68793;BME280;55778;54.346;10.210;2023-01-25T11:28:48;102823.97;;;-1.79;100.00
68793;BME280;55778;54.346;10.210;2023-01-25T11:31:20;102821.16;;;-1.67;100.00
68793;BME280;55778;54.346;10.210;2023-01-25T11:33:46;102816.72;;;-1.66;100.00
68793;BME280;55778;54.346;10.210;2023-01-25T11:41:32;102796.06;;;-1.57;100.00
68793;BME280;55778;54.346;10.210;2023-01-25T11:46:53;102780.88;;;-1.52;100.00
68793;BME280;55778;54.346;10.210;2023-01-25T11:49:26;102777.31;;;-1.54;100.00
68793;BME280;55778;54.346;10.210;2023-01-25T11:52:11;102764.13;;;-1.66;100.00
68793;BME280;55778;54.346;10.210;2023-01-25T11:55:02;102775.56;;;-1.55;100.00
68793;BME280;55778;54.346;10.210;2023-01-25T12:08:59;102736.38;;;-1.56;100.00
68793;BME280;55778;54.346;10.210;2023-01-25T12:22:45;102716.69;;;-1.50;100.00
68793;BME280;55778;54.346;10.210;2023-01-25T12:25:29;102698.03;;;-1.53;100.00
68793;BME280;55778;54.346;10.210;2023-01-25T12:33:30;102690.84;;;-1.48;100.00
68793;BME280;55778;54.346;10.210;2023-01-25T12:36:22;102680.88;;;-1.40;100.00
68793;BME280;55778;54.346;10.210;2023-01-25T12:38:54;102669.09;;;-1.27;100.00
68793;BME280;55778;54.346;10.210;2023-01-25T12:41:32;102668.22;;;-1.28;100.00
68793;BME280;55778;54.346;10.210;2023-01-25T12:44:20;102659.44;;;-1.37;100.00
68793;BME280;55778;54.346;10.210;2023-01-25T12:47:04;102653.38;;;-1.47;100.00
68793;BME280;55778;54.346;10.210;2023-01-25T12:49:58;102643.47;;;-1.42;100.00
68793;BME280;55778;54.346;10.210;2023-01-25T12:52:31;102643.47;;;-1.42;100.00
68793;BME280;55778;54.346;10.210;2023-01-25T12:55:03;102640.78;;;-1.40;100.00
68793;BME280;55778;54.346;10.210;2023-01-25T13:02:51;102620.47;;;-1.50;100.00
68793;BME280;55778;54.346;10.210;2023-01-25T13:08:16;102622.28;;;-1.52;100.00
68793;BME280;55778;54.346;10.210;2023-01-25T13:10:53;102604.66;;;-1.65;100.00
68793;BME280;55778;54.346;10.210;2023-01-25T13:13:25;102601.34;;;-1.82;100.00
68793;BME280;55778;54.346;10.210;2023-01-25T13:15:52;102599.19;;;-1.58;100.00
68793;BME280;55778;54.346;10.210;2023-01-25T13:20:57;102587.47;;;-1.49;100.00
68793;BME280;55778;54.346;10.210;2023-01-25T13:28:45;102585.53;;;-1.40;100.00
68793;BME280;55778;54.346;10.210;2023-01-25T13:44:43;102572.00;;;-1.31;100.00
68793;BME280;55778;54.346;10.210;2023-01-25T13:47:11;102563.94;;;-1.28;100.00
68793;BME280;55778;54.346;10.210;2023-01-25T13:49:51;102563.13;;;-1.33;100.00
68793;BME280;55778;54.346;10.210;2023-01-25T13:52:19;102567.56;;;-1.33;100.00
68793;BME280;55778;54.346;10.210;2023-01-25T13:54:46;102564.00;;;-1.31;100.00
68793;BME280;55778;54.346;10.210;2023-01-25T13:57:21;102555.94;;;-1.29;100.00
68793;BME280;55778;54.346;10.210;2023-01-25T13:59:47;102558.81;;;-1.41;100.00
68793;BME280;55778;54.346;10.210;2023-01-25T14:02:17;102561.44;;;-1.38;100.00
68793;BME280;55778;54.346;10.210;2023-01-25T14:04:45;102553.50;;;-1.43;100.00
68793;BME280;55778;54.346;10.210;2023-01-25T14:07:17;102553.53;;;-1.44;100.00